Time;durP1;ratioP1;P1;durP2;ratioP2;P2;SDS_P1;SDS_P2;PMS_P1;PMS_P2;Temp;Humidity;BMP_temperature;BMP_pressure;BME280_temperature;BME280_humidity;BME280_pressure;Samples;Min_cycle;Max_cycle;Signal;HPM_P1;HPM_P2
2021/01/06 00:02:22;;;;;;;9.75;3.75;;;6.20;99.90;;;;;;5072822;28;20032;-73
2021/01/06 00:04:48;;;;;;;8.15;3.78;;;6.20;99.90;;;;;;5072721;28;20516;-73
2021/01/06 00:07:13;;;;;;;7.28;4.25;;;6.20;99.90;;;;;;5072725;28;20028;-73
2021/01/06 00:09:39;;;;;;;7.07;3.45;;;6.10;99.90;;;;;;5069047;28;20151;-74
2021/01/06 00:12:07;;;;;;;9.18;4.07;;;6.20;99.90;;;;;;5054201;28;20064;-73
2021/01/06 00:14:33;;;;;;;6.15;2.92;;;6.10;99.90;;;;;;5052712;28;20041;-75
2021/01/06 00:16:58;;;;;;;9.25;3.25;;;6.10;99.90;;;;;;5052598;28;20382;-75
2021/01/06 00:19:24;;;;;;;5.35;3.05;;;6.10;99.90;;;;;;5049110;28;20060;-73
2021/01/06 00:21:50;;;;;;;7.50;3.47;;;6.10;99.90;;;;;;5052565;27;20047;-72
2021/01/06 00:24:16;;;;;;;4.72;3.20;;;6.20;99.90;;;;;;5052463;28;20039;-73
2021/01/06 00:26:42;;;;;;;7.22;3.03;;;6.10;99.90;;;;;;5053906;28;20454;-73
2021/01/06 00:29:12;;;;;;;8.68;3.30;;;6.20;99.90;;;;;;5052436;28;20033;-73
2021/01/06 00:31:42;;;;;;;9.63;3.47;;;6.10;99.90;;;;;;5062943;28;20542;-73
2021/01/06 00:34:09;;;;;;;9.60;3.40;;;6.10;99.90;;;;;;5071401;28;20123;-73
2021/01/06 00:36:34;;;;;;;7.43;3.10;;;6.10;99.90;;;;;;5068759;28;20481;-73
2021/01/06 00:39:00;;;;;;;6.53;3.28;;;6.10;99.90;;;;;;5053361;28;20043;-73
2021/01/06 00:41:31;;;;;;;8.27;3.15;;;6.10;99.90;;;;;;5051618;28;20040;-72
2021/01/06 00:43:57;;;;;;;5.95;3.00;;;6.10;99.90;;;;;;5051567;28;20041;-73
2021/01/06 00:46:28;;;;;;;8.98;3.00;;;6.10;99.90;;;;;;5050608;28;20033;-74
2021/01/06 00:48:54;;;;;;;5.05;2.88;;;6.20;99.90;;;;;;5051761;28;20021;-73
2021/01/06 00:51:19;;;;;;;5.15;2.88;;;6.10;99.90;;;;;;5051496;28;20021;-74
2021/01/06 00:53:45;;;;;;;5.15;3.17;;;6.20;99.90;;;;;;5053145;28;20033;-74
2021/01/06 00:56:11;;;;;;;4.63;2.88;;;6.20;99.90;;;;;;5051516;28;20033;-73
2021/01/06 00:58:36;;;;;;;7.13;2.35;;;6.20;99.90;;;;;;5051434;28;20067;-73
2021/01/06 01:01:03;;;;;;;5.57;2.85;;;6.10;99.90;;;;;;5051558;28;20181;-72
2021/01/06 01:03:29;;;;;;;5.28;2.83;;;6.10;99.90;;;;;;5051408;28;20464;-72
2021/01/06 01:05:54;;;;;;;4.53;2.58;;;6.10;99.90;;;;;;5051892;28;20017;-73
2021/01/06 01:08:20;;;;;;;5.68;2.63;;;6.20;99.90;;;;;;5051580;28;20044;-73
2021/01/06 01:10:52;;;;;;;4.53;2.53;;;6.10;99.90;;;;;;5051566;28;20073;-73
2021/01/06 01:13:23;;;;;;;6.90;2.83;;;6.10;99.90;;;;;;5060353;28;20029;-74
2021/01/06 01:15:51;;;;;;;7.82;3.13;;;6.20;99.90;;;;;;5071497;28;20029;-73
2021/01/06 01:18:20;;;;;;;5.60;2.88;;;6.20;99.90;;;;;;5071583;28;20021;-73
2021/01/06 01:20:51;;;;;;;6.75;2.90;;;6.20;99.90;;;;;;5072983;28;20033;-72
2021/01/06 01:23:19;;;;;;;5.70;2.47;;;6.20;99.90;;;;;;5070336;28;20083;-72
2021/01/06 01:25:45;;;;;;;6.53;2.83;;;6.10;99.90;;;;;;5071088;28;20032;-72
2021/01/06 01:28:12;;;;;;;5.20;2.72;;;6.10;99.90;;;;;;5071404;28;20477;-71
2021/01/06 01:30:38;;;;;;;5.13;2.75;;;6.10;99.90;;;;;;5071205;28;20032;-73
2021/01/06 01:33:04;;;;;;;5.43;2.50;;;6.10;99.90;;;;;;5072912;28;20108;-74
2021/01/06 01:35:31;;;;;;;6.22;2.72;;;6.10;99.90;;;;;;5073431;28;20024;-73
2021/01/06 01:37:59;;;;;;;7.37;3.13;;;6.10;99.90;;;;;;5075006;28;20041;-72
2021/01/06 01:40:34;;;;;;;4.00;2.70;;;6.00;99.90;;;;;;5074502;28;20265;-72
2021/01/06 01:43:14;;;;;;;6.20;2.67;;;6.10;99.90;;;;;;5075518;28;20055;-73
2021/01/06 01:45:45;;;;;;;4.60;2.75;;;6.10;99.90;;;;;;5074930;28;20051;-72
2021/01/06 01:48:23;;;;;;;4.28;2.55;;;6.10;99.90;;;;;;5075528;28;20031;-73
2021/01/06 01:50:51;;;;;;;6.75;2.75;;;6.10;99.90;;;;;;5074435;28;20170;-72
2021/01/06 01:53:21;;;;;;;6.22;2.63;;;6.10;99.90;;;;;;5074840;28;20033;-73
2021/01/06 01:55:49;;;;;;;4.20;2.67;;;6.00;99.90;;;;;;5074126;28;20085;-73
2021/01/06 01:58:21;;;;;;;5.50;2.67;;;6.00;99.90;;;;;;5075100;28;20518;-73
2021/01/06 02:00:48;;;;;;;4.07;2.50;;;6.00;99.90;;;;;;5074753;28;20119;-72
2021/01/06 02:03:28;;;;;;;8.60;2.85;;;6.00;99.90;;;;;;5074485;28;20051;-71
2021/01/06 02:06:28;;;;;;;9.88;4.28;;;6.00;99.90;;;;;;5076191;28;20028;-72
2021/01/06 02:08:59;;;;;;;5.47;2.55;;;6.10;99.90;;;;;;5075056;28;20064;-73
2021/01/06 02:11:38;;;;;;;5.70;2.40;;;6.10;99.90;;;;;;5074640;28;20029;-73
2021/01/06 02:14:17;;;;;;;4.40;2.25;;;6.00;99.90;;;;;;5074640;28;20037;-72
2021/01/06 02:17:07;;;;;;;6.72;1.95;;;6.00;99.90;;;;;;5074614;28;20425;-73
2021/01/06 02:19:36;;;;;;;4.32;2.00;;;6.00;99.90;;;;;;5074233;28;20472;-74
2021/01/06 02:22:03;;;;;;;5.95;2.20;;;6.00;99.90;;;;;;5074346;28;20025;-72
2021/01/06 02:24:29;;;;;;;5.07;2.40;;;6.00;99.90;;;;;;5074267;28;20024;-74
2021/01/06 02:26:55;;;;;;;3.42;2.20;;;6.00;99.90;;;;;;5075969;28;20571;-72
2021/01/06 02:29:22;;;;;;;4.25;1.95;;;6.10;99.90;;;;;;5074447;28;20040;-74
2021/01/06 02:31:48;;;;;;;3.75;1.92;;;6.00;99.90;;;;;;5074246;28;20033;-73
2021/01/06 02:34:14;;;;;;;3.58;2.15;;;5.90;99.90;;;;;;5074214;28;20051;-73
2021/01/06 02:36:40;;;;;;;6.93;2.30;;;5.90;99.90;;;;;;5074005;28;20470;-73
2021/01/06 02:39:08;;;;;;;4.65;2.38;;;5.90;99.90;;;;;;5075510;28;20464;-72
2021/01/06 02:41:35;;;;;;;8.25;2.38;;;6.00;99.90;;;;;;5073950;28;20051;-73
2021/01/06 02:44:02;;;;;;;3.30;2.03;;;6.00;99.90;;;;;;5073868;28;20106;-74
2021/01/06 02:46:28;;;;;;;5.63;2.10;;;6.00;99.90;;;;;;5072929;28;20041;-72
2021/01/06 02:48:56;;;;;;;4.93;2.20;;;5.90;99.90;;;;;;5072708;28;20116;-73
2021/01/06 02:51:24;;;;;;;;;;;5.80;99.90;;;;;;5073999;28;20162;-72
2021/01/06 02:53:53;;;;;;;;;;;5.80;99.90;;;;;;5075948;28;19904;-72
2021/01/06 02:56:20;;;;;;;4.43;2.35;;;5.80;99.90;;;;;;5073278;28;19962;-72
2021/01/06 02:58:47;;;;;;;5.80;2.42;;;5.80;99.90;;;;;;5073881;28;20029;-73
2021/01/06 03:01:16;;;;;;;3.77;2.07;;;5.70;99.90;;;;;;5073816;28;20065;-73
2021/01/06 03:03:44;;;;;;;6.40;2.47;;;5.70;99.90;;;;;;5073714;28;20107;-72
2021/01/06 03:06:30;;;;;;;4.10;2.08;;;5.80;99.90;;;;;;5075088;28;20020;-73
2021/01/06 03:08:56;;;;;;;6.03;2.17;;;5.90;99.90;;;;;;5073237;28;20036;-72
2021/01/06 03:11:22;;;;;;;5.38;2.33;;;5.90;99.90;;;;;;5072267;28;20101;-73
2021/01/06 03:13:47;;;;;;;3.97;2.17;;;5.90;99.90;;;;;;5073598;28;20400;-72
2021/01/06 03:16:13;;;;;;;5.57;2.30;;;5.80;99.90;;;;;;5073565;28;20511;-73
2021/01/06 03:18:39;;;;;;;4.18;2.28;;;5.80;99.90;;;;;;5073132;28;20037;-72
2021/01/06 03:21:08;;;;;;;3.75;2.20;;;5.80;99.90;;;;;;5075264;28;20031;-73
2021/01/06 03:23:51;;;;;;;3.22;2.00;;;5.80;99.90;;;;;;5073349;28;20366;-73
2021/01/06 03:26:20;;;;;;;5.20;2.22;;;5.80;99.90;;;;;;5073318;28;20033;-73
2021/01/06 03:28:48;;;;;;;4.82;2.00;;;5.70;99.90;;;;;;5072906;28;20442;-72
2021/01/06 03:31:17;;;;;;;;;;;5.60;99.90;;;;;;5073440;28;20029;-71
2021/01/06 03:33:53;;;;;;;3.92;1.70;;;5.70;99.90;;;;;;5071815;28;20182;-72
2021/01/06 03:36:24;;;;;;;3.83;2.25;;;5.70;99.90;;;;;;5072751;28;20060;-72
2021/01/06 03:39:03;;;;;;;5.68;2.15;;;5.70;99.90;;;;;;5073390;28;20048;-72
2021/01/06 03:41:30;;;;;;;3.30;1.85;;;5.70;99.90;;;;;;5073096;28;20600;-72
2021/01/06 03:44:06;;;;;;;5.75;2.40;;;5.70;99.90;;;;;;5072875;28;20045;-73
2021/01/06 03:47:09;;;;;;;5.05;2.40;;;5.70;99.90;;;;;;5073168;28;20032;-73
2021/01/06 03:49:41;;;;;;;5.88;2.33;;;5.60;99.90;;;;;;5072338;28;20028;-72
2021/01/06 03:52:41;;;;;;;5.32;2.42;;;5.70;99.90;;;;;;5072806;28;20025;-74
2021/01/06 03:55:26;;;;;;;3.53;2.08;;;5.70;99.90;;;;;;5072787;28;20035;-74
2021/01/06 03:57:54;;;;;;;6.72;2.50;;;5.70;99.90;;;;;;5072323;28;20035;-74
2021/01/06 04:00:38;;;;;;;5.80;2.30;;;5.60;99.90;;;;;;5072601;28;20081;-74
2021/01/06 04:03:17;;;;;;;5.03;2.00;;;5.60;99.90;;;;;;5073954;28;20081;-73
2021/01/06 04:05:45;;;;;;;3.92;2.45;;;5.60;99.90;;;;;;5072540;28;20051;-73
2021/01/06 04:08:14;;;;;;;;;;;5.60;99.90;;;;;;5072478;28;20111;-72
2021/01/06 04:10:46;;;;;;;3.53;2.28;;;5.60;99.90;;;;;;5072151;28;19919;-73
2021/01/06 04:13:12;;;;;;;4.32;2.45;;;5.60;99.90;;;;;;5072250;28;20028;-74
2021/01/06 04:15:37;;;;;;;5.50;2.92;;;5.60;99.90;;;;;;5072534;28;20028;-74
2021/01/06 04:18:03;;;;;;;4.90;2.47;;;5.60;99.90;;;;;;5073890;28;20101;-73
2021/01/06 04:20:37;;;;;;;4.65;2.58;;;5.60;99.90;;;;;;5072140;28;20032;-72
2021/01/06 04:23:06;;;;;;;7.63;3.10;;;5.60;99.90;;;;;;5072133;28;20029;-73
2021/01/06 04:25:41;;;;;;;5.63;2.90;;;5.60;99.90;;;;;;5071980;28;20048;-73
2021/01/06 04:28:15;;;;;;;6.68;2.25;;;5.60;99.90;;;;;;5071927;28;20040;-74
2021/01/06 04:30:45;;;;;;;4.78;2.30;;;5.60;99.90;;;;;;5071944;28;20051;-73
2021/01/06 04:33:16;;;;;;;3.40;2.30;;;5.50;99.90;;;;;;5073366;28;20027;-73
2021/01/06 04:35:42;;;;;;;7.85;2.53;;;5.50;99.90;;;;;;5071996;28;20438;-74
2021/01/06 04:38:12;;;;;;;5.75;2.70;;;5.50;99.90;;;;;;5071372;28;20127;-72
2021/01/06 04:40:41;;;;;;;6.78;2.80;;;5.50;99.90;;;;;;5071447;28;20051;-73
2021/01/06 04:43:29;;;;;;;6.20;2.58;;;5.60;99.90;;;;;;5071710;28;20052;-72
2021/01/06 04:46:01;;;;;;;;;;;5.60;99.90;;;;;;5071953;28;20068;-71
2021/01/06 04:48:31;;;;;;;9.45;2.88;;;5.60;99.90;;;;;;5070431;28;19919;-73
2021/01/06 04:51:17;;;;;;;7.10;3.10;;;5.60;99.90;;;;;;5073225;28;20024;-73
2021/01/06 04:54:06;;;;;;;6.03;2.92;;;5.50;99.90;;;;;;5071810;28;20036;-72
2021/01/06 04:57:01;;;;;;;5.30;2.78;;;5.40;99.90;;;;;;5070536;28;20041;-74
2021/01/06 04:59:42;;;;;;;7.70;2.95;;;5.40;99.90;;;;;;5061866;28;20055;-72
2021/01/06 05:02:41;;;;;;;8.13;3.10;;;5.40;99.90;;;;;;5071551;28;20032;-72
2021/01/06 05:05:28;;;;;;;6.55;3.20;;;5.40;99.90;;;;;;5071556;28;20044;-73
2021/01/06 05:08:12;;;;;;;8.70;3.85;;;5.40;99.90;;;;;;5070487;28;20044;-72
2021/01/06 05:10:42;;;;;;;6.10;2.83;;;5.40;99.90;;;;;;5070726;28;20032;-72
2021/01/06 05:13:39;;;;;;;5.78;3.05;;;5.30;99.90;;;;;;5071185;28;20480;-74
2021/01/06 05:16:08;;;;;;;13.35;3.78;;;5.40;99.90;;;;;;5071472;28;20037;-72
2021/01/06 05:18:34;;;;;;;4.93;2.90;;;5.40;99.90;;;;;;5071449;28;20044;-73
2021/01/06 05:21:00;;;;;;;6.97;3.38;;;5.40;99.90;;;;;;5072907;28;20100;-72
2021/01/06 05:23:29;;;;;;;6.88;3.08;;;5.40;99.90;;;;;;5070569;28;20064;-73
2021/01/06 05:25:59;;;;;;;9.45;3.28;;;5.40;99.90;;;;;;5071563;28;20450;-74
2021/01/06 05:28:26;;;;;;;6.82;3.33;;;5.30;99.90;;;;;;5071534;28;20459;-73
2021/01/06 05:30:55;;;;;;;7.53;3.58;;;5.30;99.90;;;;;;5071232;28;20036;-73
2021/01/06 05:33:35;;;;;;;7.85;3.63;;;5.30;99.90;;;;;;5071165;28;20078;-74
2021/01/06 05:36:02;;;;;;;7.32;3.78;;;5.20;99.90;;;;;;5073226;28;20023;-74
2021/01/06 05:38:28;;;;;;;11.27;3.70;;;5.30;99.90;;;;;;5070971;28;20429;-74
2021/01/06 05:40:54;;;;;;;6.55;3.83;;;5.20;99.90;;;;;;5070516;28;20052;-72
2021/01/06 05:43:29;;;;;;;10.50;3.63;;;5.20;99.90;;;;;;5071245;28;20032;-73
2021/01/06 05:46:02;;;;;;;7.28;3.30;;;5.20;99.90;;;;;;5071249;28;20098;-72
2021/01/06 05:48:35;;;;;;;8.77;3.75;;;5.10;99.90;;;;;;5070996;28;20029;-72
2021/01/06 05:51:30;;;;;;;9.50;4.20;;;5.10;99.90;;;;;;5072575;28;20494;-72
2021/01/06 05:54:06;;;;;;;10.13;4.10;;;5.10;99.90;;;;;;5070240;28;20090;-73
2021/01/06 05:57:01;;;;;;;8.73;4.05;;;5.10;99.90;;;;;;5071156;28;20049;-72
2021/01/06 05:59:45;;;;;;;12.32;4.60;;;5.10;99.90;;;;;;5071113;28;20036;-73
2021/01/06 06:02:31;;;;;;;11.05;5.38;;;5.10;99.90;;;;;;5070944;28;20127;-73
2021/01/06 06:05:27;;;;;;;10.50;4.38;;;5.10;99.90;;;;;;5070564;28;20036;-73
2021/01/06 06:08:23;;;;;;;10.77;4.20;;;5.00;99.90;;;;;;5070824;28;20068;-73
2021/01/06 06:11:26;;;;;;;9.30;4.55;;;5.10;99.90;;;;;;5069777;28;20120;-74
2021/01/06 06:14:23;;;;;;;11.02;4.95;;;5.10;99.90;;;;;;5070904;28;20043;-73
2021/01/06 06:17:15;;;;;;;9.75;4.80;;;5.10;99.90;;;;;;5071115;28;20135;-74
2021/01/06 06:20:27;;;;;;;7.40;4.40;;;5.10;99.90;;;;;;5070863;28;20025;-74
2021/01/06 06:23:08;;;;;;;9.70;4.68;;;5.00;99.90;;;;;;5074400;28;20028;-73
2021/01/06 06:25:38;;;;;;;10.93;4.32;;;5.00;99.90;;;;;;5074166;28;20458;-73
2021/01/06 06:28:09;;;;;;;8.95;4.57;;;5.10;99.90;;;;;;5074148;28;20041;-74
2021/01/06 06:30:51;;;;;;;8.45;4.43;;;5.10;99.90;;;;;;5074475;28;20446;-74
2021/01/06 06:33:30;;;;;;;6.95;4.43;;;5.00;99.90;;;;;;5074440;28;20025;-73
2021/01/06 06:35:56;;;;;;;7.95;4.35;;;5.00;99.90;;;;;;5075578;28;20036;-73
2021/01/06 06:38:43;;;;;;;9.63;3.92;;;4.90;99.90;;;;;;5073878;28;20474;-73
2021/01/06 06:41:33;;;;;;;8.95;4.28;;;5.00;99.90;;;;;;5073203;28;20033;-74
2021/01/06 06:44:18;;;;;;;11.65;4.25;;;4.90;99.90;;;;;;5056920;28;20029;-74
2021/01/06 06:46:43;;;;;;;8.57;3.90;;;5.00;99.90;;;;;;5073705;28;20040;-74
2021/01/06 06:49:38;;;;;;;6.70;4.20;;;5.00;99.90;;;;;;5073742;28;20031;-75
2021/01/06 06:52:24;;;;;;;9.05;5.10;;;4.90;99.90;;;;;;5074017;28;20078;-74
2021/01/06 06:54:53;;;;;;;7.97;4.32;;;4.90;99.90;;;;;;5073581;28;20016;-73
2021/01/06 06:57:43;;;;;;;10.52;5.30;;;4.90;99.90;;;;;;5073082;28;20024;-74
2021/01/06 07:00:24;;;;;;;10.50;5.00;;;4.90;99.90;;;;;;5074955;28;20115;-73
2021/01/06 07:02:55;;;;;;;22.55;10.10;;;4.90;99.90;;;;;;5073488;28;20029;-74
2021/01/06 07:05:44;;;;;;;9.48;4.78;;;5.00;99.90;;;;;;5073478;28;20036;-75
2021/01/06 07:08:21;;;;;;;7.22;4.43;;;5.10;99.90;;;;;;5070448;28;20036;-73
2021/01/06 07:10:56;;;;;;;8.63;4.00;;;5.00;99.90;;;;;;5073435;28;20032;-73
2021/01/06 07:13:24;;;;;;;10.98;4.45;;;4.90;99.90;;;;;;5073118;28;20029;-74
2021/01/06 07:15:51;;;;;;;;;;;4.90;99.90;;;;;;5073553;28;20032;-73
2021/01/06 07:18:40;;;;;;;8.70;4.35;;;4.90;99.90;;;;;;5073119;28;19911;-72
2021/01/06 07:21:06;;;;;;;12.18;5.03;;;4.90;99.90;;;;;;5074438;28;20017;-73
2021/01/06 07:23:34;;;;;;;10.75;5.40;;;4.90;99.90;;;;;;5073397;28;20033;-73
2021/01/06 07:26:14;;;;;;;9.60;4.70;;;4.90;99.90;;;;;;5073017;28;20401;-73
2021/01/06 07:28:41;;;;;;;8.75;4.35;;;4.90;99.90;;;;;;5072043;28;20370;-73
2021/01/06 07:31:20;;;;;;;9.35;5.45;;;4.90;99.90;;;;;;5072726;28;20089;-73
2021/01/06 07:33:52;;;;;;;8.77;4.25;;;4.80;99.90;;;;;;5072329;28;20032;-73
2021/01/06 07:36:47;;;;;;;9.18;5.57;;;4.80;99.90;;;;;;5072567;28;20086;-72
2021/01/06 07:39:42;;;;;;;10.65;5.03;;;4.80;99.90;;;;;;5072291;28;20686;-73
2021/01/06 07:42:44;;;;;;;11.95;4.63;;;4.80;99.90;;;;;;5059104;28;20075;-77
2021/01/06 07:45:24;;;;;;;12.52;5.18;;;4.80;99.90;;;;;;5073190;28;20040;-76
2021/01/06 07:48:14;;;;;;;10.15;4.82;;;4.70;99.90;;;;;;5051123;28;20045;-76
2021/01/06 07:50:59;;;;;;;10.90;5.00;;;4.80;99.90;;;;;;5052955;28;20048;-76
2021/01/06 07:53:34;;;;;;;9.88;4.90;;;4.80;99.90;;;;;;5052563;28;20507;-74
2021/01/06 07:56:13;;;;;;;9.07;5.03;;;4.80;99.90;;;;;;5052604;28;20053;-75
2021/01/06 07:58:42;;;;;;;12.38;4.85;;;4.70;99.90;;;;;;5052541;28;20090;-77
2021/01/06 08:01:31;;;;;;;9.63;5.10;;;4.80;99.90;;;;;;5051380;28;20069;-74
2021/01/06 08:04:01;;;;;;;10.65;5.82;;;4.90;99.90;;;;;;5058019;28;20033;-73
2021/01/06 08:07:06;;;;;;;11.80;5.43;;;4.80;99.90;;;;;;5072131;28;20623;-72
2021/01/06 08:09:37;;;;;;;8.75;5.20;;;4.90;99.90;;;;;;5072230;28;20081;-71
2021/01/06 08:12:20;;;;;;;11.65;5.07;;;4.90;99.90;;;;;;5073537;28;20524;-73
2021/01/06 08:14:49;;;;;;;16.02;6.28;;;4.90;99.90;;;;;;5072326;28;20466;-72
2021/01/06 08:17:33;;;;;;;12.88;6.00;;;4.90;99.90;;;;;;5071911;28;20032;-71
2021/01/06 08:20:10;;;;;;;12.23;5.50;;;4.90;99.90;;;;;;5071949;28;20043;-72
2021/01/06 08:22:49;;;;;;;20.50;8.98;;;5.00;99.90;;;;;;5071942;28;20063;-72
2021/01/06 08:25:24;;;;;;;12.27;7.00;;;5.00;99.90;;;;;;5071619;28;20071;-73
2021/01/06 08:27:49;;;;;;;11.90;7.00;;;4.90;99.90;;;;;;5071932;28;20041;-72
2021/01/06 08:30:27;;;;;;;13.70;6.75;;;5.00;99.90;;;;;;5070772;28;20443;-73
2021/01/06 08:33:09;;;;;;;12.00;6.60;;;4.90;99.90;;;;;;5073108;28;20108;-74
2021/01/06 08:35:43;;;;;;;15.55;7.28;;;5.00;99.90;;;;;;5070466;28;20112;-72
2021/01/06 08:38:33;;;;;;;14.60;6.32;;;5.00;99.90;;;;;;5071836;28;20374;-82
2021/01/06 08:41:19;;;;;;;11.95;6.47;;;4.90;99.90;;;;;;5071861;28;20044;-79
2021/01/06 08:43:46;;;;;;;13.15;6.88;;;5.00;99.90;;;;;;5071455;28;20024;-80
2021/01/06 08:46:26;;;;;;;12.85;6.85;;;5.10;99.90;;;;;;5071711;28;20109;-77
2021/01/06 08:48:52;;;;;;;13.82;6.93;;;5.20;99.90;;;;;;5071815;28;20108;-74
2021/01/06 08:51:30;;;;;;;12.85;7.07;;;5.10;99.90;;;;;;5071831;28;20095;-72
2021/01/06 08:53:56;;;;;;;12.82;6.43;;;5.00;99.90;;;;;;5073269;28;20025;-72
2021/01/06 08:56:29;;;;;;;14.98;7.22;;;5.10;99.90;;;;;;5072218;28;20158;-83
2021/01/06 08:58:57;;;;;;;11.73;7.07;;;5.10;99.90;;;;;;5072116;28;20028;-70
2021/01/06 09:01:35;;;;;;;12.82;7.07;;;5.10;99.90;;;;;;5071785;28;20071;-71
2021/01/06 09:04:10;;;;;;;14.93;7.35;;;5.00;99.90;;;;;;5071361;28;20047;-72
2021/01/06 09:06:54;;;;;;;14.27;7.72;;;5.10;99.90;;;;;;5071374;28;20033;-72
2021/01/06 09:09:26;;;;;;;18.83;9.77;;;5.20;99.90;;;;;;5070506;28;20419;-80
2021/01/06 09:11:56;;;;;;;24.00;12.13;;;5.20;99.90;;;;;;5073057;28;20047;-80
2021/01/06 09:14:37;;;;;;;22.35;12.02;;;5.20;99.90;;;;;;5071343;28;20531;-79
2021/01/06 09:17:59;;;;;;;22.15;12.85;;;5.20;99.90;;;;;;5070173;28;20100;-71
2021/01/06 09:20:59;;;;;;;23.83;13.10;;;5.20;99.90;;;;;;5037084;28;20423;-72
2021/01/06 09:23:26;;;;;;;18.02;10.32;;;5.20;99.90;;;;;;5070177;28;20090;-71
2021/01/06 09:25:52;;;;;;;19.23;9.98;;;5.20;99.90;;;;;;5071258;28;20127;-72
2021/01/06 09:28:19;;;;;;;15.52;9.13;;;5.10;99.90;;;;;;5071310;28;20033;-72
2021/01/06 09:30:46;;;;;;;18.53;8.40;;;5.30;99.90;;;;;;5070110;28;20044;-72
2021/01/06 09:33:28;;;;;;;11.52;7.30;;;5.20;99.90;;;;;;5072647;28;20350;-73
2021/01/06 09:35:55;;;;;;;16.33;8.32;;;5.10;99.90;;;;;;5071292;28;20417;-72
2021/01/06 09:38:34;;;;;;;15.07;7.97;;;5.20;99.90;;;;;;5070133;28;20075;-73
2021/01/06 09:41:05;;;;;;;16.50;8.57;;;5.10;99.90;;;;;;5070057;28;20120;-72
2021/01/06 09:43:36;;;;;;;12.00;6.78;;;5.20;99.90;;;;;;5071098;28;20477;-73
2021/01/06 09:46:11;;;;;;;13.00;7.85;;;5.10;99.90;;;;;;5070983;28;20103;-74
2021/01/06 09:48:37;;;;;;;14.60;8.25;;;5.30;99.90;;;;;;5071212;28;20032;-73
2021/01/06 09:51:03;;;;;;;14.40;7.15;;;5.20;99.90;;;;;;5072443;28;20338;-72
2021/01/06 09:53:31;;;;;;;14.07;8.00;;;5.20;99.90;;;;;;5051525;28;20051;-72
2021/01/06 09:55:57;;;;;;;18.38;9.27;;;5.20;99.90;;;;;;5052095;28;20048;-71
2021/01/06 09:58:28;;;;;;;16.25;8.98;;;5.30;99.90;;;;;;5054802;28;20029;-74
2021/01/06 10:01:23;;;;;;;16.90;9.18;;;5.40;99.90;;;;;;5054744;28;20033;-72
2021/01/06 10:03:51;;;;;;;17.00;9.10;;;5.50;99.90;;;;;;5054511;28;20060;-72
2021/01/06 10:06:53;;;;;;;15.35;8.50;;;5.50;99.90;;;;;;5054474;28;20025;-71
2021/01/06 10:09:37;;;;;;;16.90;9.38;;;5.50;99.90;;;;;;5019684;28;20033;-71
2021/01/06 10:12:38;;;;;;;14.38;7.35;;;5.40;99.90;;;;;;5056003;28;20048;-72
2021/01/06 10:15:23;;;;;;;16.65;8.75;;;5.30;99.90;;;;;;5054700;28;20037;-72
2021/01/06 10:18:01;;;;;;;12.98;7.32;;;5.50;99.90;;;;;;5053818;28;20090;-72
2021/01/06 10:20:42;;;;;;;14.18;7.70;;;5.50;99.90;;;;;;5053446;28;20059;-72
2021/01/06 10:23:23;;;;;;;14.00;7.97;;;5.40;99.90;;;;;;5065456;28;20116;-73
2021/01/06 10:26:29;;;;;;;17.40;8.07;;;5.40;99.90;;;;;;5054271;28;20098;-72
2021/01/06 10:28:55;;;;;;;11.55;7.32;;;5.50;99.90;;;;;;5054198;28;20062;-73
2021/01/06 10:31:24;;;;;;;10.77;6.45;;;5.40;99.90;;;;;;5055925;28;20052;-73
2021/01/06 10:34:19;;;;;;;12.82;7.28;;;5.30;99.90;;;;;;5074082;28;20063;-71
2021/01/06 10:37:02;;;;;;;13.60;7.53;;;5.50;99.90;;;;;;5073775;28;20132;-75
2021/01/06 10:39:41;;;;;;;15.65;7.45;;;5.50;99.90;;;;;;5074194;28;20032;-74
2021/01/06 10:42:22;;;;;;;17.80;7.65;;;5.40;99.90;;;;;;5075461;28;20459;-78
2021/01/06 10:44:59;;;;;;;14.13;6.95;;;5.40;99.90;;;;;;5074312;28;20028;-73
2021/01/06 10:47:30;;;;;;;13.82;7.13;;;5.40;99.90;;;;;;5070971;28;20028;-79
2021/01/06 10:50:31;;;;;;;13.35;6.78;;;5.30;99.90;;;;;;5074095;28;20109;-76
2021/01/06 10:53:18;;;;;;;10.93;6.20;;;5.40;99.90;;;;;;5070327;28;20028;-73
2021/01/06 10:56:05;;;;;;;12.77;7.53;;;5.40;99.90;;;;;;5073493;28;20032;-70
2021/01/06 10:58:49;;;;;;;13.00;6.95;;;5.40;99.90;;;;;;5073740;28;20033;-73
2021/01/06 11:01:43;;;;;;;11.70;6.60;;;5.50;99.90;;;;;;5073765;28;20111;-72
2021/01/06 11:04:37;;;;;;;13.32;7.20;;;5.50;99.90;;;;;;5072627;28;20059;-75
2021/01/06 11:07:39;;;;;;;15.18;7.82;;;5.50;99.90;;;;;;5072765;28;20365;-73
2021/01/06 11:10:20;;;;;;;12.15;6.72;;;5.50;99.90;;;;;;5073356;28;20071;-73
2021/01/06 11:13:10;;;;;;;13.73;7.43;;;5.70;99.90;;;;;;5073411;28;20025;-75
2021/01/06 11:16:16;;;;;;;13.73;6.68;;;5.70;99.90;;;;;;5073577;28;20048;-68
2021/01/06 11:18:47;;;;;;;13.75;6.97;;;5.70;99.90;;;;;;5065575;28;20116;-67
2021/01/06 11:21:14;;;;;;;13.80;6.57;;;5.70;99.90;;;;;;5074927;28;20021;-74
2021/01/06 11:23:51;;;;;;;13.77;7.20;;;5.70;99.90;;;;;;5072267;28;20021;-68
2021/01/06 11:26:31;;;;;;;13.30;7.65;;;5.70;99.90;;;;;;5071878;28;20095;-69
2021/01/06 11:29:24;;;;;;;14.13;7.30;;;5.70;99.90;;;;;;5073029;28;20037;-68
2021/01/06 11:32:00;;;;;;;26.70;13.13;;;5.70;99.90;;;;;;5073214;28;20102;-70
2021/01/06 11:34:36;;;;;;;20.25;9.00;;;5.80;99.90;;;;;;5073461;28;20178;-68
2021/01/06 11:37:25;;;;;;;14.05;8.07;;;5.90;99.90;;;;;;5072948;28;20476;-70
2021/01/06 11:39:51;;;;;;;12.82;6.32;;;6.00;99.90;;;;;;5072828;28;20033;-70
2021/01/06 11:42:20;;;;;;;12.38;6.13;;;5.90;99.90;;;;;;5072835;28;20043;-71
2021/01/06 11:45:12;;;;;;;11.27;6.75;;;5.90;99.90;;;;;;5074336;28;20454;-77
2021/01/06 11:47:48;;;;;;;13.32;6.60;;;5.80;99.90;;;;;;5071782;28;20048;-70
2021/01/06 11:50:33;;;;;;;12.55;6.25;;;5.80;99.80;;;;;;5073018;28;20044;-70
2021/01/06 11:53:10;;;;;;;14.98;7.18;;;5.80;99.90;;;;;;5073072;28;20102;-73
2021/01/06 11:56:05;;;;;;;10.77;6.22;;;6.00;99.90;;;;;;5072805;28;20040;-69
2021/01/06 11:59:07;;;;;;;12.05;6.22;;;6.00;99.80;;;;;;5071704;28;20119;-75
2021/01/06 12:02:04;;;;;;;12.73;6.85;;;5.90;99.80;;;;;;5072867;28;20046;-74
2021/01/06 12:04:42;;;;;;;13.38;6.95;;;5.90;99.80;;;;;;5071742;28;20032;-84
2021/01/06 12:07:29;;;;;;;12.90;6.00;;;5.80;99.50;;;;;;5072658;28;20050;-80
2021/01/06 12:10:20;;;;;;;11.27;6.38;;;5.90;99.90;;;;;;5072501;28;20035;-76
2021/01/06 12:13:04;;;;;;;11.10;6.35;;;5.80;99.70;;;;;;5072561;28;20451;-79
2021/01/06 12:15:42;;;;;;;11.45;6.63;;;5.80;99.70;;;;;;5072279;28;20020;-77
2021/01/06 12:18:28;;;;;;;10.55;6.43;;;5.90;99.90;;;;;;5073766;28;20090;-72
2021/01/06 12:20:55;;;;;;;11.38;6.82;;;5.90;99.60;;;;;;5072521;28;20040;-73
2021/01/06 12:23:42;;;;;;;11.77;6.13;;;5.90;99.80;;;;;;5071891;28;20039;-69
2021/01/06 12:26:38;;;;;;;11.40;5.95;;;5.80;99.40;;;;;;5072105;28;20045;-69
2021/01/06 12:29:08;;;;;;;10.30;5.75;;;5.70;99.80;;;;;;5069522;28;20035;-71
2021/01/06 12:32:00;;;;;;;11.50;6.13;;;5.80;99.90;;;;;;5071844;28;20036;-69
2021/01/06 12:34:34;;;;;;;9.57;5.88;;;5.80;99.90;;;;;;5071965;28;20021;-69
2021/01/06 12:37:18;;;;;;;11.65;6.13;;;5.80;99.90;;;;;;5071819;28;20040;-69
2021/01/06 12:40:06;;;;;;;13.85;6.20;;;5.90;99.90;;;;;;5072168;28;20107;-68
2021/01/06 12:43:01;;;;;;;9.68;5.70;;;5.80;99.80;;;;;;5071912;28;20379;-68
2021/01/06 12:45:38;;;;;;;7.50;4.65;;;5.60;99.70;;;;;;5071418;28;20040;-69
2021/01/06 12:48:09;;;;;;;32.85;18.73;;;5.50;99.70;;;;;;5073050;28;20021;-67
2021/01/06 12:50:55;;;;;;;10.65;5.90;;;5.50;99.90;;;;;;5071778;28;20032;-68
2021/01/06 12:53:26;;;;;;;6.72;4.68;;;5.40;99.90;;;;;;5070302;28;20043;-70
2021/01/06 12:56:22;;;;;;;8.75;4.93;;;5.50;99.90;;;;;;5071606;28;20051;-68
2021/01/06 12:59:06;;;;;;;9.00;4.82;;;5.50;99.80;;;;;;5071787;28;20036;-73
2021/01/06 13:01:48;;;;;;;9.13;4.80;;;5.60;99.70;;;;;;5071774;28;20473;-72
2021/01/06 13:04:16;;;;;;;7.03;4.30;;;5.60;99.90;;;;;;5071442;28;20115;-73
2021/01/06 13:06:55;;;;;;;8.73;4.22;;;5.60;99.90;;;;;;5071158;28;20032;-73
2021/01/06 13:09:32;;;;;;;10.82;5.10;;;5.70;99.90;;;;;;5071422;28;20025;-68
2021/01/06 13:12:17;;;;;;;10.57;4.67;;;5.60;99.70;;;;;;5073353;28;20032;-69
2021/01/06 13:14:52;;;;;;;9.23;4.53;;;5.50;99.70;;;;;;5071568;28;20032;-71
2021/01/06 13:17:28;;;;;;;6.30;4.15;;;5.30;99.60;;;;;;5071654;28;20064;-71
2021/01/06 13:20:34;;;;;;;8.23;4.40;;;5.40;99.80;;;;;;5070549;28;20037;-71
2021/01/06 13:23:23;;;;;;;7.60;4.28;;;5.50;99.80;;;;;;5071384;28;20032;-75
2021/01/06 13:26:22;;;;;;;6.80;4.25;;;5.60;99.80;;;;;;5066682;28;20413;-74
2021/01/06 13:29:08;;;;;;;11.27;5.53;;;5.20;99.70;;;;;;5070356;28;20033;-70
2021/01/06 13:31:38;;;;;;;9.30;4.65;;;5.30;99.90;;;;;;5073907;28;20040;-71
2021/01/06 13:34:24;;;;;;;10.25;5.85;;;5.30;99.80;;;;;;5075638;28;20059;-69
2021/01/06 13:37:06;;;;;;;7.45;4.13;;;5.50;99.90;;;;;;5074018;28;20484;-71
2021/01/06 13:39:41;;;;;;;8.90;4.32;;;5.30;99.50;;;;;;5072473;28;20074;-71
2021/01/06 13:42:27;;;;;;;7.35;4.30;;;5.40;99.70;;;;;;5056720;28;20086;-72
2021/01/06 13:45:13;;;;;;;10.40;4.68;;;5.20;99.50;;;;;;5055164;28;20163;-71